sim
Sign-in with your pilot id or email,
or register
Callsign
Passwort

Schedule Details

Flight Number: DLH2583 (2)
Departure: Edinburgh Airport (EGPH) at 12:05
Arrival: Munich Airport (EDDM) at 14:10
Route: Lufthansa Passenger Schedule. Enter filed route here before submitting Pirep.

Weather Information
Getting current METAR information for EGPH 260120Z VRB03KT 9999 BKN037 04/00 Q1014
Getting current METAR information for EDDM 260120Z 25012KT 9999 -RA BKN014 07/06 Q1000 NOSIG

Schedule Frequency

Route Map